首页
METAR-TAF:

METAR-TAF

机场 :

科克舍套, 哈萨克斯坦

纬度: 53-19-48N, 经度: 069-35-48E, 海拔: 270米

当前天气观测

该预报发布于20分钟前的11:00 UTC
风速14节,风向西
温度 26°C
湿度 51%
气压 1001 hPa
能见度10公里或以上
1500米以下无云,无积雨云

METAR: UACK 231100Z 27007MPS CAVOK 26/15 Q1001 NOSIG RMK QFE727/0969

时间: 17:20 (11:20 UTC)

预报

该预报发布于3小时和20分钟前的08:00 UTC
预报有效从23日的 09点(UTC)到 23日的 18点(UTC)
风速12节,风向西南,有时为21节阵风
能见度10公里或以上
1500米以下无云,无积雨云
短暂存在
从 23日的 09点(UTC)到 23日的 18点(UTC)
风速14节,风向西转西南,有时为27节阵风
能見度: 3100
多云层高于1100英尺
多云层高于2000英尺, 积雨云.
雷暴, 小雨,

TAF: UACK 230800Z 2309/2318 22006G11MPS CAVOK TEMPO 2309/2318 24007G14MPS 3100 -TSRA BKN011 BKN020CB

超过4000个机场的气象观测和天气预报(METAR&TAF报告)。

可查询的气象台以黄色和红色小点在地图上表示。

将鼠标移到小点上方,可查看气象台名称。

然后点击查看天气观测和预报。

如需切换地图:点击带黑十字的绿色按钮放大地图;点击带横线的绿色按钮缩小地图;或者点击绿色箭头查看邻近地区的地图。


METAR-TAF: